Station Historical Data
Daily Summary for May 7, 2017 Units:  English    Metric   Both
« Previous Day
Next Day »
Daily Weekly Monthly Yearly Custom
  High: Low: Average:
Temperature: 67.8 °F 49.2 °F 57.8 °F
Dew Point: 51.6 °F 32.2 °F 42.9 °F
Humidity: 93% 28% 62%
Wind Speed: 2.0mph 0.0mph 0.1mph
Wind Gust: 6.0mph - -
Wind- - WSW
Pressure: 30.07 in 29.90 in -
Precipitation: 0.00 in    
Historical Graphs
 
 
Tabular Data for May 7, 2017
Time Temperature Dew Point Pressure Wind Wind Speed Wind Gust Humidity Rainfall Rate (Hourly) Conditions
00:00 53.8 °F 49.7 °F 29.90 in Calm     86% 0.00 in SCT
00:15 53.8 °F 49.4 °F 29.91 in Calm     85% 0.00 in SCT
00:30 53.8 °F 49.4 °F 29.91 in Calm     85% 0.00 in SCT
00:45 53.5 °F 49.7 °F 29.92 in Calm     87% 0.00 in SCT
01:00 53.4 °F 49.6 °F 29.92 in Calm     87% 0.00 in SCT
01:15 53.2 °F 49.1 °F 29.93 in Calm   1.0 mph 86% 0.00 in SCT
01:30 53.2 °F 49.1 °F 29.93 in Calm     86% 0.00 in SCT
01:45 53.2 °F 49.1 °F 29.93 in Calm     86% 0.00 in SCT
02:00 53.2 °F 49.1 °F 29.93 in Calm     86% 0.00 in SCT
02:15 52.6 °F 48.5 °F 29.94 in Calm   1.0 mph 86% 0.00 in SCT
02:30 52.4 °F 48.3 °F 29.94 in Calm   1.0 mph 86% 0.00 in SCT
02:45 52.2 °F 48.1 °F 29.94 in Calm     86% 0.00 in SCT
03:00 51.9 °F 47.9 °F 29.95 in Calm     86% 0.00 in SCT
03:15 51.4 °F 47.7 °F 29.94 in Calm     87% 0.00 in SCT
03:30 50.9 °F 47.2 °F 29.94 in Calm     87% 0.00 in SCT
03:45 53.2 °F 49.1 °F 29.93 in Calm     86% 0.00 in SCT
04:00 49.3 °F 46.2 °F 29.94 in Calm     89% 0.00 in SCT
04:15 49.3 °F 46.2 °F 29.94 in Calm     89% 0.00 in SCT
04:30 49.3 °F 46.2 °F 29.95 in Calm     89% 0.00 in SCT
04:45 49.3 °F 46.2 °F 29.95 in Calm     89% 0.00 in SCT
05:00 49.3 °F 46.2 °F 29.95 in Calm     89% 0.00 in SCT
05:15 49.3 °F 46.2 °F 29.95 in Calm     89% 0.00 in SCT
05:30 49.3 °F 46.2 °F 29.95 in Calm     89% 0.00 in SCT
05:45 49.3 °F 46.2 °F 29.95 in Calm     89% 0.00 in SCT
06:00 49.3 °F 46.2 °F 29.96 in Calm     89% 0.00 in SCT
06:15 49.3 °F 46.2 °F 29.97 in Calm     89% 0.00 in SCT
06:30 49.3 °F 46.2 °F 29.97 in Calm     89% 0.00 in SCT
06:45 49.3 °F 46.2 °F 29.98 in Calm     89% 0.00 in SCT
07:00 49.3 °F 46.2 °F 29.99 in Calm     89% 0.00 in SCT
07:15 49.3 °F 46.2 °F 29.99 in Calm     89% 0.00 in SCT
07:30 49.3 °F 46.2 °F 29.99 in Calm     89% 0.00 in SCT
07:45 49.3 °F 46.2 °F 30.01 in Calm     89% 0.00 in SCT
08:00 49.2 °F 47.3 °F 30.02 in Calm     93% 0.00 in SCT
08:15 50.0 °F 48.1 °F 30.02 in Calm   1.0 mph 93% 0.00 in SCT
08:30 50.0 °F 48.1 °F 30.02 in Calm     93% 0.00 in SCT
08:45 50.0 °F 48.1 °F 30.02 in Calm     93% 0.00 in SCT
09:00 53.2 °F 46.5 °F 30.04 in Calm   4.0 mph 78% 0.00 in SCT
09:15 54.6 °F 46.5 °F 30.04 in Calm   5.0 mph 74% 0.00 in SCT
09:30 56.4 °F 45.1 °F 30.05 in Calm   2.0 mph 66% 0.00 in SCT
09:45 56.6 °F 42.0 °F 30.05 in Calm   5.0 mph 58% 0.00 in SCT
10:00 57.6 °F 42.9 °F 30.06 in Calm   2.0 mph 58% 0.00 in SCT
10:15 59.9 °F 51.6 °F 30.06 in Calm     74% 0.00 in SCT
10:30 59.8 °F 39.0 °F 30.07 in WSW 1.0 mph 3.0 mph 46% 0.00 in SCT
10:45 60.3 °F 41.0 °F 30.07 in SSW 2.0 mph 2.0 mph 49% 0.00 in SCT
11:00 60.3 °F 38.3 °F 30.07 in SW 1.0 mph 3.0 mph 44% 0.00 in SCT
11:15 60.4 °F 37.2 °F 30.07 in West 1.0 mph 5.0 mph 42% 0.00 in SCT
11:30 60.1 °F 38.1 °F 30.07 in Calm     44% 0.00 in SCT
11:45 61.1 °F 35.3 °F 30.07 in SW 1.0 mph 5.0 mph 38% 0.00 in SCT
12:00 60.1 °F 38.1 °F 30.07 in Calm     44% 0.00 in SCT
12:15 63.0 °F 37.0 °F 30.07 in NW 1.0 mph 5.0 mph 38% 0.00 in SCT
12:30 63.8 °F 34.9 °F 30.07 in Calm   5.0 mph 34% 0.00 in SCT
12:45 60.1 °F 38.1 °F 30.07 in Calm     44% 0.00 in SCT
13:00 60.1 °F 38.1 °F 30.07 in Calm     44% 0.00 in SCT
13:15 60.1 °F 38.1 °F 30.07 in Calm     44% 0.00 in SCT
13:30 66.3 °F 32.2 °F 30.05 in SSW 1.0 mph 3.0 mph 28% 0.00 in SCT
13:45 66.7 °F 38.9 °F 30.05 in Calm   5.0 mph 36% 0.00 in SCT
14:00 67.3 °F 33.1 °F 30.05 in ESE 1.0 mph 5.0 mph 28% 0.00 in SCT
14:15 66.6 °F 35.8 °F 30.04 in Calm   5.0 mph 32% 0.00 in SCT
14:30 65.8 °F 34.3 °F 30.04 in Calm   5.0 mph 31% 0.00 in SCT
14:45 65.7 °F 34.2 °F 30.04 in Calm     31% 0.00 in SCT
15:00 65.9 °F 35.2 °F 30.04 in Calm   5.0 mph 32% 0.00 in SCT
15:15 65.9 °F 33.6 °F 30.04 in Calm   6.0 mph 30% 0.00 in SCT
15:30 66.0 °F 36.8 °F 30.03 in Calm   5.0 mph 34% 0.00 in SCT
15:45 66.0 °F 37.5 °F 30.02 in Calm   5.0 mph 35% 0.00 in SCT
16:00 65.8 °F 33.5 °F 30.04 in NNW 1.0 mph   30% 0.00 in SCT
16:15 66.1 °F 36.9 °F 30.01 in Calm   3.0 mph 34% 0.00 in SCT
16:30 65.8 °F 33.5 °F 30.04 in NNW 1.0 mph   30% 0.00 in SCT
16:45 65.8 °F 33.5 °F 30.04 in NNW 1.0 mph   30% 0.00 in SCT
17:00 67.1 °F 39.9 °F 30.01 in Calm   5.0 mph 37% 0.00 in SCT
17:15 67.8 °F 40.6 °F 30.01 in Calm   5.0 mph 37% 0.00 in SCT
17:30 67.3 °F 39.4 °F 30.01 in Calm     36% 0.00 in SCT
17:45 67.3 °F 39.4 °F 30.01 in Calm     36% 0.00 in SCT
18:00 66.7 °F 39.6 °F 30.00 in Calm   2.0 mph 37% 0.00 in SCT
18:15 66.7 °F 39.6 °F 30.00 in Calm     37% 0.00 in SCT
18:30 66.7 °F 39.6 °F 30.00 in Calm     37% 0.00 in SCT
18:45 65.6 °F 40.6 °F 30.00 in Calm   1.0 mph 40% 0.00 in SCT
19:00 65.4 °F 41.0 °F 30.00 in Calm   1.0 mph 41% 0.00 in SCT
19:15 64.5 °F 42.1 °F 30.00 in Calm   1.0 mph 44% 0.00 in SCT
19:30 64.1 °F 42.3 °F 30.00 in Calm   2.0 mph 45% 0.00 in SCT
19:45 63.7 °F 42.5 °F 30.00 in Calm   1.0 mph 46% 0.00 in SCT
20:00 62.8 °F 43.3 °F 30.00 in Calm     49% 0.00 in SCT
20:15 64.5 °F 42.1 °F 30.00 in Calm     44% 0.00 in SCT
20:30 64.5 °F 42.1 °F 30.00 in Calm     44% 0.00 in SCT
20:45 60.1 °F 43.9 °F 30.01 in Calm     55% 0.00 in SCT
21:00 59.1 °F 43.9 °F 30.02 in Calm     57% 0.00 in SCT
21:15 60.1 °F 43.9 °F 30.01 in Calm     55% 0.00 in SCT
21:30 57.8 °F 44.4 °F 30.02 in Calm     61% 0.00 in SCT
21:45 58.1 °F 44.7 °F 30.02 in Calm     61% 0.00 in SCT
22:00 56.8 °F 44.7 °F 30.03 in Calm     64% 0.00 in SCT
22:15 56.7 °F 44.7 °F 30.03 in Calm     64% 0.00 in SCT
22:30 55.9 °F 43.9 °F 30.04 in Calm     64% 0.00 in SCT
22:45 55.1 °F 44.3 °F 30.04 in Calm     67% 0.00 in SCT
23:00 54.9 °F 44.5 °F 30.04 in Calm     68% 0.00 in SCT
23:15 54.6 °F 45.0 °F 30.04 in Calm     70% 0.00 in SCT
23:30 54.2 °F 45.4 °F 30.04 in Calm     72% 0.00 in SCT
23:45 53.6 °F 45.2 °F 30.04 in Calm     73% 0.00 in SCT
Piedmont Bend
Compliments of Weather Underground - 4 mb